Portada
METAR-TAF:

METAR-TAF

Aeroports :

Marigot, Dominica

latitud: 15-32N, longitud: 061-18W, altitud: 13 m

Observació

L'informe es va fer fa 1 hora i 14 minuts, a les 21:00 UTC
Vent 5 kt del Est
Temperatura 23°C
Humitat 89%
Pressió 1013 hPa
Visibilitat 10 km o més
Cel ennuvolat a una alçada de 1500 ft

METAR: TDPD 012100Z 09005KT 9999 BKN015 23/21 Q1013

Hora: 18:14 (22:14 UTC)

Pronòstic

L'informe es va fer fa 5 hores i 14 minuts, a les 17:00 UTC
Pronòstic vàlid del 01 a les 18 UTC al 02 a les 18 UTC
Vent 12 kt del Est
Visibilitat 10 km o més
Núvols disperses a una alçada de 1800 ft
Probabilitat 30% :
Temporalment
l' 01 a les 21 UTC al 02 a les 03 UTC
Cel ennuvolat a una alçada de 1500 ft
xàfecs de pluja

TAF: TDPD 011700Z 0118/0218 10012KT 9999 SCT018 PROB30 TEMPO 0121/0203 SHRA BKN015

Observacions i pronòstics meteorològics de més de 4000 aeroports (METAR i TAF).

Les estacions disponibles són els punts grocs i vermells al mapa.

Posi el ratolí al punt desitjat per veure el nom de l'estació.

Feu clic per veure les observacions i els pronòstics meteorològics.

Per canviar el mapa: feu clic els botons verds amb una creu de color negre per apropar; al botó verd amb un guió per allunyar la imatge; o en les fletxes verdes per a mapes adjacents.


METAR-TAF: